Airfield :
LOGIN :

Register | Disclaimer

   EN    FR    IT 

 










Legend :    VFR   Marginal VFR   IFR   Intensive IFR   Very Intensive IFR
Visi :
Ceiling :
>= 8 km
>= 3000ft
5 to 8 km
1000 to 3000 ft
1500m to 5 km
500 to 1000 ft
800 to 1500m
200 to 500 ft
< 800m
< 200 ft
Symbols :   Thunderstorms  Fog  Heavy snow  Heavy precipitations  Wind > 20 kt
SIGMETs :     Misc.  Thunderstorms  Icing  Turbulence  Mountain Waves  Volcanic Ashes






- Airport Elevation : 821 ft
- IATA code : LYS


LFLL - Lyon St Exupéry / Satolas

CURRENT METAR :
  • 032030Z 00000KT CAVOK 15/12 Q1015 NOSIG

EXPIRED METARs :
  • 032000Z 06005KT 300V090 CAVOK 16/13 Q1014 NOSIG
  • 031930Z 04007KT CAVOK 17/13 Q1014 NOSIG
  • 031900Z 36009KT CAVOK 17/12 Q1014 NOSIG
  • 031830Z 36011KT CAVOK 17/12 Q1014 NOSIG
  • 031800Z 35005KT 9999 FEW046TCU BKN086 17/14 Q1014 NOSIG

TAF TAF LFLL
Valid from the 03 at 18:00 until the 05 at 00:00 UTC


031700Z 0318/0424 36005KT 9999 FEW050 BKN060
PROB40
TEMPO 0318/0324 SHRA SCT040TCU
BECMG 0406/0408 35010KT
PROB30
TEMPO 0406/0409 BKN020
TEMPO 0411/0417 35015G25KT
BECMG 0415/0417 CAVOK
BECMG 0420/0422 VRB03KT



MET'MAP, your aeronautical weather chart ! - Copyright ORBIFLY December 2007 - Disclaimer

ORBIFLY MET'MAP TEAM :

Programming & Development : Alexandra Zaïnal
Concept & original design : Baudouin d'Aumeries
Assistance for programming : Marc-Olivier Méhu
Technical & hardware support : Manuel Goepfert

Contact : metmap@orbifly.com




SOURCES & CREDITS :

   NOAA